BBC Congo — V2EL3 — position and weather

sailwx.info

Track history (hours):
 
Tides and Currents Weather Stations Pressure Air Temp Water Temp Dewpoint Dewpoint Depression Visibility Wind Speed Wind Dir Waves Ship Positions

BBC Congo

Last reported at 2015-Jun-01 20:33 UTC. Time now 2015-Jul-04 15:23 UTC.
Position N 34°02' E 146°29'.
Warning: this ship's position is 32 days out of date.

Length 144 m; draft 7.1 m.

Type: Ship. MMSI: 305466000.

Date/timePositionNaut miles runAvg speedWind from/ knotsBaromVisibWave heightAir tempDewpointWater temp
2015-Jun-01 20:33N 34°02' E 146°29'7313.6
2015-Jun-01 15:12N 33°51' E 145°02'2613.0
2015-Jun-01 13:12N 33°46' E 144°31'  
2015-May-29 16:10N 33°37' E 128°41'  
2015-May-26 02:33N 34°28' E 125°35'1614.7
2015-May-26 01:29N 34°43' E 125°36'1314.3
2015-May-26 00:33N 34°56' E 125°38'1813.9
2015-May-25 23:15N 35°14' E 125°41'1013.8
2015-May-25 22:33N 35°24' E 125°42'4113.6
2015-May-25 19:33N 36°05' E 125°48'1813.9
2015-May-25 18:17N 36°22' E 125°48'1614.2
2015-May-25 17:11N 36°37' E 125°54'914.5
2015-May-25 16:34N 36°46' E 125°57'  
Track history (hours):
 
Tides and Currents Weather Stations Pressure Air Temp Water Temp Dewpoint Dewpoint Depression Visibility Wind Speed Wind Dir Waves Ship Positions

BBC Congo

Last reported at 2015-Jun-01 20:33 UTC. Time now 2015-Jul-04 15:23 UTC.
Position N 34°02' E 146°29'.
Warning: this ship's position is 32 days out of date.

Length 144 m; draft 7.1 m.

Type: Ship. MMSI: 305466000.

Date/timePositionNaut miles runAvg speedWind from/ knotsBaromVisibWave heightAir tempDewpointWater temp
2015-Jun-01 20:33N 34°02' E 146°29'7313.6
2015-Jun-01 15:12N 33°51' E 145°02'2613.0
2015-Jun-01 13:12N 33°46' E 144°31'  
2015-May-29 16:10N 33°37' E 128°41'  
2015-May-26 02:33N 34°28' E 125°35'1614.7
2015-May-26 01:29N 34°43' E 125°36'1314.3
2015-May-26 00:33N 34°56' E 125°38'1813.9
2015-May-25 23:15N 35°14' E 125°41'1013.8
2015-May-25 22:33N 35°24' E 125°42'4113.6
2015-May-25 19:33N 36°05' E 125°48'1813.9
2015-May-25 18:17N 36°22' E 125°48'1614.2
2015-May-25 17:11N 36°37' E 125°54'914.5
2015-May-25 16:34N 36°46' E 125°57'  

Dump ship's entire track history